createdAt,value
2023-04-09T00:05:04.024Z,5.55
2023-04-09T00:10:25.601Z,5.58
2023-04-09T00:22:02.051Z,5.67
2023-04-09T00:27:23.765Z,5.66
2023-04-09T00:32:54.588Z,5.70
2023-04-09T00:38:17.213Z,5.75
2023-04-09T00:43:38.791Z,5.74
2023-04-09T00:49:45.400Z,5.78
2023-04-09T01:01:23.171Z,5.76
2023-04-09T01:07:11.763Z,5.83
2023-04-09T01:12:48.586Z,5.86
2023-04-09T01:18:23.481Z,5.85
2023-04-09T01:23:52.679Z,5.91
2023-04-09T01:29:16.043Z,5.87
2023-04-09T01:34:39.067Z,5.92
2023-04-09T01:40:01.674Z,5.92
2023-04-09T01:45:23.683Z,5.94
2023-04-09T01:50:45.993Z,5.91
2023-04-09T01:56:08.604Z,5.89
2023-04-09T02:01:34.110Z,5.92
2023-04-09T02:07:04.304Z,5.93
2023-04-09T02:12:26.181Z,5.90
2023-04-09T02:17:48.697Z,5.93
2023-04-09T02:23:10.514Z,5.97
2023-04-09T02:28:32.341Z,5.96
2023-04-09T02:33:54.390Z,5.95
2023-04-09T02:39:16.573Z,5.95
2023-04-09T02:44:38.056Z,5.94
2023-04-09T02:50:00.355Z,5.93
2023-04-09T02:55:25.459Z,5.95
2023-04-09T03:00:47.177Z,5.98
2023-04-09T03:06:09.011Z,6.01
2023-04-09T03:11:30.651Z,6.02
2023-04-09T03:16:52.241Z,6.03
2023-04-09T03:22:14.189Z,6.04
2023-04-09T03:27:36.526Z,6.03
2023-04-09T03:58:12.671Z,6.05
2023-04-09T04:03:34.556Z,6.07
2023-04-09T04:09:17.863Z,6.06
2023-04-09T04:14:59.472Z,6.07
2023-04-09T04:33:04.359Z,6.08
2023-04-09T04:38:34.882Z,6.13
2023-04-09T04:44:00.370Z,6.16
2023-04-09T04:49:21.928Z,6.15
2023-04-09T04:54:46.512Z,6.21
2023-04-09T05:00:14.174Z,6.24
2023-04-09T05:05:36.518Z,6.33
2023-04-09T05:11:30.351Z,6.45
2023-04-09T05:16:52.470Z,6.39
2023-04-09T05:22:18.624Z,6.45
2023-04-09T05:27:41.225Z,6.44
2023-04-09T05:33:03.083Z,6.40
2023-04-09T05:38:26.220Z,6.39
2023-04-09T05:43:51.846Z,6.47
2023-04-09T05:49:14.420Z,6.54
2023-04-09T05:54:38.412Z,6.59
2023-04-09T06:00:03.689Z,6.62
2023-04-09T06:05:37.836Z,6.61
2023-04-09T06:10:59.652Z,6.59
2023-04-09T06:16:21.318Z,6.65
2023-04-09T06:21:42.817Z,6.71
2023-04-09T06:27:04.644Z,6.78
2023-04-09T06:32:27.273Z,7.02
2023-04-09T06:44:05.585Z,7.43
2023-04-09T06:50:05.940Z,7.43
2023-04-09T06:55:28.615Z,7.28
2023-04-09T07:01:32.786Z,7.50
2023-04-09T07:07:23.259Z,7.73
2023-04-09T07:12:53.348Z,8.93
2023-04-09T07:18:59.834Z,9.66
2023-04-09T07:24:32.847Z,9.41
2023-04-09T07:29:58.530Z,9.59
2023-04-09T07:36:23.094Z,10.03
2023-04-09T07:41:51.303Z,11.89
2023-04-09T07:47:49.311Z,13.65
2023-04-09T07:53:19.079Z,13.01
2023-04-09T07:58:40.002Z,11.70
2023-04-09T08:04:01.483Z,10.67
2023-04-09T08:09:22.835Z,10.13
2023-04-09T08:14:44.621Z,9.84
2023-04-09T08:20:06.337Z,10.01
2023-04-09T08:25:27.564Z,10.79
2023-04-09T08:30:48.568Z,17.48
2023-04-09T08:36:09.505Z,26.19
2023-04-09T08:41:30.589Z,27.58
2023-04-09T08:46:51.366Z,27.56
2023-04-09T08:52:12.063Z,25.28
2023-04-09T08:57:40.304Z,23.75
2023-04-09T09:03:08.533Z,23.82
2023-04-09T09:08:30.726Z,22.41
2023-04-09T09:13:58.119Z,27.11
2023-04-09T09:19:24.769Z,26.01
2023-04-09T09:24:50.322Z,30.30
2023-04-09T09:30:21.673Z,29.92
2023-04-09T09:35:50.171Z,28.93
2023-04-09T09:41:17.078Z,26.19
2023-04-09T09:46:39.374Z,25.81
2023-04-09T09:52:00.578Z,30.99
2023-04-09T09:57:23.699Z,36.64
2023-04-09T10:02:48.387Z,36.36
2023-04-09T10:08:09.700Z,36.47
2023-04-09T10:13:56.598Z,32.97
2023-04-09T10:19:17.340Z,30.00
2023-04-09T10:24:38.207Z,27.25
2023-04-09T10:30:00.332Z,26.75
2023-04-09T10:35:25.794Z,28.51
2023-04-09T10:40:50.936Z,27.16
2023-04-09T10:46:31.328Z,24.49
2023-04-09T10:51:52.910Z,23.94
2023-04-09T10:57:14.060Z,24.48
2023-04-09T11:02:38.133Z,22.64
2023-04-09T11:08:03.340Z,20.57
2023-04-09T11:13:24.280Z,20.07
2023-04-09T11:18:45.520Z,18.62
2023-04-09T11:24:06.292Z,18.70
2023-04-09T11:29:27.240Z,18.58
2023-04-09T11:34:47.870Z,17.48
2023-04-09T11:40:32.252Z,16.38
2023-04-09T11:45:53.385Z,15.62
2023-04-09T11:51:14.048Z,14.98
2023-04-09T11:56:36.277Z,14.45
2023-04-09T12:02:00.658Z,14.02
2023-04-09T12:07:22.535Z,13.78
2023-04-09T12:12:44.234Z,13.46
2023-04-09T12:18:08.323Z,13.20
2023-04-09T12:23:31.457Z,13.10
2023-04-09T12:28:52.730Z,13.32
2023-04-09T12:34:13.633Z,13.35
2023-04-09T12:39:34.540Z,13.21
2023-04-09T12:44:55.159Z,13.22
2023-04-09T12:50:16.313Z,13.00
2023-04-09T12:55:37.382Z,12.38
2023-04-09T13:00:58.736Z,12.50
2023-04-09T13:06:19.604Z,12.73
2023-04-09T13:11:40.813Z,12.88
2023-04-09T13:17:01.887Z,12.76
2023-04-09T13:22:22.664Z,12.68
2023-04-09T13:27:43.472Z,12.64
2023-04-09T13:33:04.310Z,12.63
2023-04-09T13:38:24.970Z,12.93
2023-04-09T13:43:45.943Z,13.24
2023-04-09T13:49:06.895Z,13.75
2023-04-09T13:54:27.714Z,13.59
2023-04-09T13:59:48.599Z,13.71
2023-04-09T14:05:09.605Z,13.98
2023-04-09T14:10:30.819Z,14.17
2023-04-09T14:15:51.736Z,14.19
2023-04-09T14:21:12.394Z,14.20
2023-04-09T14:26:33.177Z,14.17
2023-04-09T14:31:55.991Z,14.20
2023-04-09T14:37:18.228Z,14.45
2023-04-09T14:42:40.782Z,14.44
2023-04-09T14:48:01.521Z,14.39
2023-04-09T14:53:22.199Z,14.25
2023-04-09T14:58:42.735Z,14.20
2023-04-09T15:04:04.738Z,14.04
2023-04-09T15:09:25.450Z,14.35
2023-04-09T15:14:46.417Z,14.34
2023-04-09T15:20:07.907Z,14.09
2023-04-09T15:25:28.625Z,13.87
2023-04-09T15:30:49.426Z,13.90
2023-04-09T15:36:10.586Z,13.85
2023-04-09T15:41:32.372Z,13.80
2023-04-09T15:46:53.158Z,13.51
2023-04-09T15:52:13.925Z,13.30
2023-04-09T15:57:34.699Z,13.09
2023-04-09T16:02:55.356Z,12.81
2023-04-09T16:08:16.117Z,12.61
2023-04-09T16:13:37.294Z,12.55
2023-04-09T16:18:58.220Z,12.42
2023-04-09T16:24:19.975Z,12.25
2023-04-09T16:29:41.019Z,12.29
2023-04-09T16:35:02.557Z,12.17
2023-04-09T16:40:24.508Z,12.02
2023-04-09T16:45:45.392Z,11.92
2023-04-09T16:51:06.298Z,11.89
2023-04-09T16:56:27.514Z,11.82
2023-04-09T17:01:49.233Z,11.78
2023-04-09T17:07:10.173Z,11.60
2023-04-09T17:12:31.342Z,11.56
2023-04-09T17:17:53.646Z,11.49
2023-04-09T17:23:14.783Z,11.38
2023-04-09T17:28:36.173Z,11.32
2023-04-09T17:33:56.772Z,11.18
2023-04-09T17:39:18.078Z,11.05
2023-04-09T17:44:46.830Z,10.97
2023-04-09T17:50:35.662Z,10.79
2023-04-09T17:56:16.649Z,10.52
2023-04-09T18:02:42.523Z,10.24
2023-04-09T18:09:27.985Z,9.99
2023-04-09T18:14:32.488Z,9.85
2023-04-09T18:19:54.548Z,9.61
2023-04-09T18:25:15.823Z,9.52
2023-04-09T18:30:38.826Z,9.34
2023-04-09T18:36:01.341Z,9.41
2023-04-09T18:41:26.105Z,9.48
2023-04-09T18:46:47.472Z,9.55
2023-04-09T18:52:10.273Z,9.62
2023-04-09T18:57:33.294Z,9.69
2023-04-09T19:02:54.635Z,9.72
2023-04-09T19:08:16.543Z,9.70
2023-04-09T19:13:37.692Z,9.72
2023-04-09T19:18:58.759Z,9.73
2023-04-09T19:24:19.486Z,9.68
2023-04-09T19:29:40.726Z,9.66
2023-04-09T19:35:04.031Z,9.67
2023-04-09T19:40:25.725Z,9.65
2023-04-09T19:45:46.994Z,9.65
2023-04-09T19:51:08.314Z,9.57
2023-04-09T19:56:29.210Z,9.57
2023-04-09T20:01:50.951Z,9.52
2023-04-09T20:07:12.000Z,9.53
2023-04-09T20:12:32.759Z,9.52
2023-04-09T20:17:53.677Z,9.55
2023-04-09T20:23:16.756Z,9.56
2023-04-09T20:28:41.377Z,9.57
2023-04-09T20:34:30.757Z,9.58
2023-04-09T20:39:51.562Z,9.59
2023-04-09T20:45:12.572Z,9.55
2023-04-09T20:50:33.852Z,9.53
2023-04-09T20:55:54.949Z,9.52
2023-04-09T21:01:17.496Z,9.47
2023-04-09T21:07:06.856Z,9.45
2023-04-09T21:12:29.811Z,9.48
2023-04-09T21:17:50.864Z,9.44
2023-04-09T21:23:12.701Z,9.42
2023-04-09T21:28:33.586Z,9.37
2023-04-09T21:33:54.790Z,9.38
2023-04-09T21:39:15.580Z,9.38
2023-04-09T21:44:36.628Z,9.32
2023-04-09T21:50:26.409Z,9.32
2023-04-09T21:55:47.212Z,9.37
2023-04-09T22:01:13.111Z,9.35
2023-04-09T22:06:45.783Z,9.35
2023-04-09T22:12:07.268Z,9.34
2023-04-09T22:17:28.095Z,9.30
2023-04-09T22:22:49.175Z,9.29
2023-04-09T22:28:10.029Z,9.31
2023-04-09T22:33:31.222Z,9.29
2023-04-09T22:38:53.062Z,9.25
2023-04-09T22:44:14.173Z,9.22
2023-04-09T22:49:35.216Z,9.22
2023-04-09T22:54:56.542Z,9.24
2023-04-09T23:00:17.429Z,9.20
2023-04-09T23:05:38.338Z,9.21
2023-04-09T23:10:59.339Z,9.14
2023-04-09T23:16:19.985Z,9.14
2023-04-09T23:21:40.867Z,9.14
2023-04-09T23:27:02.399Z,9.13
2023-04-09T23:32:23.495Z,9.09
2023-04-09T23:37:44.378Z,9.06
2023-04-09T23:43:05.106Z,9.09
2023-04-09T23:48:25.898Z,9.03
2023-04-09T23:53:46.682Z,9.00
2023-04-09T23:59:07.693Z,9.02
